createdAt,value
2023-01-23T00:00:35.223Z,81
2023-01-23T00:05:36.247Z,81
2023-01-23T00:15:39.587Z,80
2023-01-23T00:20:41.228Z,81
2023-01-23T00:25:43.116Z,80
2023-01-23T00:30:44.520Z,81
2023-01-23T00:35:45.926Z,82
2023-01-23T00:40:47.670Z,82
2023-01-23T00:45:49.263Z,81
2023-01-23T00:50:50.436Z,81
2023-01-23T00:55:52.318Z,80
2023-01-23T01:00:54.160Z,79
2023-01-23T01:05:55.532Z,80
2023-01-23T01:10:57.038Z,81
2023-01-23T01:15:58.786Z,82
2023-01-23T01:21:00.513Z,82
2023-01-23T01:26:02.655Z,82
2023-01-23T01:31:04.216Z,82
2023-01-23T01:36:05.808Z,82
2023-01-23T01:41:07.066Z,82
2023-01-23T01:46:09.234Z,83
2023-01-23T01:51:10.445Z,82
2023-01-23T01:56:11.984Z,82
2023-01-23T02:01:13.390Z,82
2023-01-23T02:06:15.264Z,82
2023-01-23T02:11:16.802Z,82
2023-01-23T02:16:18.666Z,82
2023-01-23T02:21:20.449Z,82
2023-01-23T02:26:21.684Z,81
2023-01-23T02:31:23.250Z,81
2023-01-23T02:36:24.203Z,80
2023-01-23T02:41:26.017Z,81
2023-01-23T02:46:27.468Z,81
2023-01-23T02:51:28.793Z,81
2023-01-23T02:56:30.630Z,81
2023-01-23T03:01:32.716Z,81
2023-01-23T03:06:33.679Z,80
2023-01-23T03:11:35.402Z,80
2023-01-23T03:16:38.497Z,80
2023-01-23T03:21:39.073Z,81
2023-01-23T03:26:40.456Z,81
2023-01-23T03:31:42.392Z,80
2023-01-23T03:36:44.034Z,80
2023-01-23T03:41:45.957Z,80
2023-01-23T03:46:47.345Z,80
2023-01-23T03:51:49.156Z,80
2023-01-23T03:56:50.986Z,80
2023-01-23T04:01:52.952Z,79
2023-01-23T04:06:54.752Z,79
2023-01-23T04:11:56.675Z,79
2023-01-23T04:16:58.468Z,79
2023-01-23T04:22:00.121Z,79
2023-01-23T04:27:01.556Z,79
2023-01-23T04:32:03.545Z,79
2023-01-23T04:37:05.174Z,80
2023-01-23T04:42:06.860Z,79
2023-01-23T04:47:08.855Z,79
2023-01-23T04:52:10.523Z,79
2023-01-23T04:57:12.655Z,79
2023-01-23T05:02:14.554Z,79
2023-01-23T05:07:15.743Z,79
2023-01-23T05:12:16.950Z,79
2023-01-23T05:17:18.326Z,80
2023-01-23T05:22:20.312Z,81
2023-01-23T05:27:22.161Z,81
2023-01-23T05:32:23.708Z,81
2023-01-23T05:37:25.232Z,81
2023-01-23T05:42:26.668Z,82
2023-01-23T05:47:28.092Z,82
2023-01-23T05:52:29.755Z,82
2023-01-23T05:57:31.009Z,82
2023-01-23T06:02:33.125Z,82
2023-01-23T06:07:34.623Z,82
2023-01-23T06:12:36.093Z,82
2023-01-23T06:17:37.951Z,82
2023-01-23T06:22:39.104Z,82
2023-01-23T06:27:40.361Z,82
2023-01-23T06:32:42.580Z,84
2023-01-23T06:37:44.117Z,84
2023-01-23T06:42:45.919Z,84
2023-01-23T06:47:47.441Z,84
2023-01-23T06:52:48.718Z,84
2023-01-23T06:57:50.802Z,85
2023-01-23T07:02:52.530Z,84
2023-01-23T07:07:53.790Z,84
2023-01-23T07:12:55.631Z,84
2023-01-23T07:17:57.250Z,84
2023-01-23T07:22:58.833Z,84
2023-01-23T07:28:00.445Z,85
2023-01-23T07:33:02.124Z,85
2023-01-23T07:38:04.308Z,86
2023-01-23T07:43:05.682Z,86
2023-01-23T07:48:07.946Z,86
2023-01-23T07:53:09.725Z,86
2023-01-23T07:58:11.101Z,86
2023-01-23T08:03:13.132Z,87
2023-01-23T08:08:15.293Z,87
2023-01-23T08:13:16.594Z,86
2023-01-23T08:18:18.858Z,86
2023-01-23T08:23:20.173Z,85
2023-01-23T08:28:21.992Z,83
2023-01-23T08:33:24.129Z,83
2023-01-23T08:38:26.178Z,83
2023-01-23T08:43:28.214Z,83
2023-01-23T08:48:30.180Z,83
2023-01-23T08:53:32.097Z,82
2023-01-23T08:58:33.685Z,83
2023-01-23T09:03:35.159Z,81
2023-01-23T09:08:36.839Z,80
2023-01-23T09:13:38.850Z,81
2023-01-23T09:18:40.784Z,81
2023-01-23T09:23:42.899Z,81
2023-01-23T09:28:45.008Z,81
2023-01-23T09:33:47.173Z,81
2023-01-23T09:38:48.327Z,81
2023-01-23T09:43:49.983Z,81
2023-01-23T09:48:51.708Z,81
2023-01-23T09:53:53.097Z,81
2023-01-23T09:58:54.799Z,79
2023-01-23T10:03:57.100Z,80
2023-01-23T10:08:58.185Z,80
2023-01-23T10:14:00.293Z,80
2023-01-23T10:19:02.444Z,81
2023-01-23T10:24:04.470Z,80
2023-01-23T10:29:06.242Z,81
2023-01-23T10:34:08.240Z,81
2023-01-23T10:39:09.984Z,80
2023-01-23T10:44:11.954Z,79
2023-01-23T10:49:13.307Z,79
2023-01-23T10:54:25.904Z,79
2023-01-23T10:59:16.037Z,79
2023-01-23T11:04:17.419Z,79
2023-01-23T11:09:19.202Z,79
2023-01-23T11:14:20.913Z,79
2023-01-23T11:19:22.412Z,79
2023-01-23T11:24:37.732Z,79
2023-01-23T11:29:25.692Z,79
2023-01-23T11:34:27.945Z,78
2023-01-23T11:39:29.674Z,80
2023-01-23T11:44:38.002Z,80
2023-01-23T11:49:32.319Z,80
2023-01-23T11:54:33.721Z,80
2023-01-23T11:59:35.246Z,80
2023-01-23T12:04:37.517Z,81
2023-01-23T12:09:39.257Z,81
2023-01-23T12:14:40.804Z,80
2023-01-23T12:19:42.547Z,80
2023-01-23T12:24:44.183Z,80
2023-01-23T12:29:45.844Z,81
2023-01-23T12:34:47.405Z,80
2023-01-23T12:39:49.445Z,79
2023-01-23T12:44:51.317Z,79
2023-01-23T12:49:52.731Z,79
2023-01-23T12:54:54.650Z,79
2023-01-23T12:59:56.081Z,77
2023-01-23T13:04:58.144Z,77
2023-01-23T13:09:59.797Z,77
2023-01-23T13:15:13.258Z,77
2023-01-23T13:20:02.350Z,76
2023-01-23T13:25:04.397Z,76
2023-01-23T13:30:06.238Z,76
2023-01-23T13:35:07.779Z,76
2023-01-23T13:40:09.052Z,77
2023-01-23T13:45:10.505Z,77
2023-01-23T13:50:12.189Z,77
2023-01-23T13:50:18.405Z,77
2023-01-23T13:55:20.459Z,77
2023-01-23T14:00:22.544Z,77
2023-01-23T14:05:23.825Z,78
2023-01-23T14:10:25.603Z,78
2023-01-23T14:15:27.751Z,78
2023-01-23T14:20:29.785Z,78
2023-01-23T14:25:31.764Z,79
2023-01-23T14:35:35.366Z,78
2023-01-23T14:40:49.118Z,78
2023-01-23T14:45:39.421Z,79
2023-01-23T14:50:40.907Z,78
2023-01-23T14:55:42.641Z,78
2023-01-23T15:00:44.251Z,78
2023-01-23T15:05:45.763Z,79
2023-01-23T15:10:47.213Z,80
2023-01-23T15:15:49.198Z,80
2023-01-23T15:20:51.323Z,79
2023-01-23T15:26:04.407Z,79
2023-01-23T15:30:54.396Z,80
2023-01-23T15:35:56.203Z,80
2023-01-23T15:40:57.825Z,80
2023-01-23T15:45:59.991Z,80
2023-01-23T15:51:01.463Z,80
2023-01-23T15:56:02.815Z,81
2023-01-23T16:01:04.275Z,81
2023-01-23T16:06:06.408Z,81
2023-01-23T16:11:07.521Z,81
2023-01-23T16:16:08.753Z,81
2023-01-23T16:21:10.201Z,82
2023-01-23T16:26:11.680Z,82
2023-01-23T16:31:12.910Z,82
2023-01-23T16:36:14.866Z,82
2023-01-23T16:41:16.599Z,82
2023-01-23T16:46:18.487Z,82
2023-01-23T16:51:20.241Z,82
2023-01-23T16:56:21.503Z,82
2023-01-23T17:01:23.336Z,82
2023-01-23T17:06:24.876Z,83
2023-01-23T17:11:26.784Z,83
2023-01-23T17:16:29.057Z,83
2023-01-23T17:21:31.051Z,83
2023-01-23T17:26:32.995Z,83
2023-01-23T17:31:34.986Z,83
2023-01-23T17:36:36.576Z,82
2023-01-23T17:41:38.375Z,82
2023-01-23T17:46:40.202Z,82
2023-01-23T17:51:41.948Z,82
2023-01-23T17:56:43.782Z,82
2023-01-23T18:01:45.513Z,82
2023-01-23T18:06:47.710Z,82
2023-01-23T18:11:49.799Z,83
2023-01-23T18:16:51.610Z,83
2023-01-23T18:21:53.003Z,83
2023-01-23T18:26:54.529Z,83
2023-01-23T18:31:56.659Z,84
2023-01-23T18:36:58.592Z,84
2023-01-23T18:42:00.296Z,84
2023-01-23T18:47:01.826Z,84
2023-01-23T18:52:03.617Z,84
2023-01-23T18:57:04.957Z,84
2023-01-23T19:02:06.987Z,85
2023-01-23T19:07:08.402Z,85
2023-01-23T19:12:17.401Z,84
2023-01-23T19:17:12.005Z,85
2023-01-23T19:22:13.868Z,85
2023-01-23T19:27:15.599Z,85
2023-01-23T19:32:16.842Z,85
2023-01-23T19:37:18.628Z,85
2023-01-23T19:42:19.754Z,85
2023-01-23T19:47:21.903Z,85
2023-01-23T19:52:23.774Z,85
2023-01-23T19:57:25.203Z,84
2023-01-23T20:02:26.930Z,84
2023-01-23T20:07:28.377Z,85
2023-01-23T20:12:29.976Z,85
2023-01-23T20:17:31.874Z,85
2023-01-23T20:22:34.078Z,85
2023-01-23T20:27:35.523Z,85
2023-01-23T20:32:37.664Z,86
2023-01-23T20:37:39.053Z,86
2023-01-23T20:42:40.777Z,86
2023-01-23T20:47:42.020Z,87
2023-01-23T20:52:43.524Z,88
2023-01-23T20:57:45.478Z,88
2023-01-23T21:02:47.731Z,88
2023-01-23T21:07:49.732Z,88
2023-01-23T21:12:50.929Z,88
2023-01-23T21:17:52.957Z,90
2023-01-23T21:22:54.297Z,90
2023-01-23T21:27:55.979Z,90
2023-01-23T21:32:57.457Z,91
2023-01-23T21:37:59.355Z,91
2023-01-23T21:43:00.568Z,91
2023-01-23T21:48:02.024Z,91
2023-01-23T21:53:04.062Z,91
2023-01-23T21:58:05.937Z,91
2023-01-23T22:03:07.418Z,91
2023-01-23T22:08:08.923Z,91
2023-01-23T22:13:10.826Z,90
2023-01-23T22:18:12.565Z,90
2023-01-23T22:23:14.608Z,90
2023-01-23T22:28:16.393Z,91
2023-01-23T22:33:18.589Z,91
2023-01-23T22:38:19.936Z,90
2023-01-23T22:43:21.356Z,90
2023-01-23T22:48:22.971Z,90
2023-01-23T22:53:24.324Z,90
2023-01-23T22:58:25.500Z,90
2023-01-23T23:03:27.026Z,91
2023-01-23T23:08:28.981Z,90
2023-01-23T23:13:30.844Z,91
2023-01-23T23:18:32.338Z,91
2023-01-23T23:23:34.094Z,91
2023-01-23T23:28:35.668Z,91
2023-01-23T23:33:37.220Z,92
2023-01-23T23:38:38.731Z,92
2023-01-23T23:43:40.738Z,91
2023-01-23T23:48:42.271Z,91
2023-01-23T23:53:44.294Z,91
2023-01-23T23:58:46.206Z,91
